createdAt,value
2017-04-23T04:01:02.694Z,58.17
2017-04-23T04:01:28.260Z,58.07
2017-04-23T04:01:53.938Z,58.2
2017-04-23T04:02:19.541Z,58.17
2017-04-23T04:02:45.190Z,58.17
2017-04-23T04:03:10.760Z,58.17
2017-04-23T04:03:36.316Z,58.29
2017-04-23T04:04:01.882Z,58.36
2017-04-23T04:04:27.431Z,57.97
2017-04-23T04:04:52.982Z,58.26
2017-04-23T04:05:18.672Z,58.36
2017-04-23T04:05:44.215Z,58.36
2017-04-23T04:06:09.764Z,58.36
2017-04-23T04:06:35.310Z,58.36
2017-04-23T04:07:00.872Z,58.07
2017-04-23T04:07:26.430Z,58.36
2017-04-23T04:07:51.986Z,58.07
2017-04-23T04:08:17.541Z,58.07
2017-04-23T04:08:43.101Z,58.07
2017-04-23T04:09:08.655Z,58.48
2017-04-23T04:09:34.299Z,58.36
2017-04-23T04:09:59.848Z,58.48
2017-04-23T04:10:25.410Z,58.07
2017-04-23T04:10:50.960Z,58.36
2017-04-23T04:11:16.532Z,58.07
2017-04-23T04:11:42.095Z,58.26
2017-04-23T04:12:07.680Z,58.36
2017-04-23T04:12:33.243Z,58.45
2017-04-23T04:12:58.794Z,58.29
2017-04-23T04:13:24.372Z,58.07
2017-04-23T04:13:49.966Z,58.26
2017-04-23T04:14:15.523Z,58.07
2017-04-23T04:14:41.153Z,58.55
2017-04-23T04:15:06.696Z,58.36
2017-04-23T04:15:32.262Z,58.07
2017-04-23T04:15:57.811Z,58.45
2017-04-23T04:16:23.361Z,58.36
2017-04-23T04:16:48.922Z,58.26
2017-04-23T04:17:14.476Z,58.17
2017-04-23T04:17:40.031Z,58.39
2017-04-23T04:18:05.619Z,58.29
2017-04-23T04:18:31.164Z,58.07
2017-04-23T04:18:56.711Z,58.07
2017-04-23T04:19:22.300Z,58.36
2017-04-23T04:19:47.858Z,58.26
2017-04-23T04:20:13.424Z,58.29
2017-04-23T04:20:38.983Z,58.26
2017-04-23T04:21:04.561Z,58.17
2017-04-23T04:21:30.130Z,58.36
2017-04-23T04:21:55.788Z,58.36
2017-04-23T04:22:21.352Z,58.45
2017-04-23T04:22:46.909Z,58.26
2017-04-23T04:23:12.466Z,57.97
2017-04-23T04:23:38.019Z,58.1
2017-04-23T04:24:03.593Z,58.26
2017-04-23T04:24:29.149Z,58.26
2017-04-23T04:24:54.722Z,58.26
2017-04-23T04:25:20.276Z,58.07
2017-04-23T04:25:45.828Z,58.36
2017-04-23T04:26:11.391Z,58.17
2017-04-23T04:26:37.030Z,58.17
2017-04-23T04:27:02.592Z,58.07
2017-04-23T04:27:28.168Z,57.97
2017-04-23T04:27:53.720Z,58.17
2017-04-23T04:28:19.272Z,58.07
2017-04-23T04:28:44.834Z,57.97
2017-04-23T04:29:10.389Z,58.07
2017-04-23T04:29:35.958Z,58.26
2017-04-23T04:30:01.522Z,58.07
2017-04-23T04:30:27.099Z,58.17
2017-04-23T04:30:52.677Z,58.17
2017-04-23T04:31:18.310Z,58.26
2017-04-23T04:31:43.873Z,58.45
2017-04-23T04:32:09.460Z,58.36
2017-04-23T04:32:35.010Z,58.45
2017-04-23T04:33:00.649Z,58.17
2017-04-23T04:33:26.209Z,58.36
2017-04-23T04:33:51.786Z,58.36
2017-04-23T04:34:17.328Z,58.36
2017-04-23T04:34:42.890Z,58.17
2017-04-23T04:35:08.465Z,58.45
2017-04-23T04:35:34.040Z,58.45
2017-04-23T04:35:59.611Z,58.45
2017-04-23T04:36:25.172Z,58.45
2017-04-23T04:36:50.812Z,58.55
2017-04-23T04:37:16.363Z,58.55
2017-04-23T04:37:41.930Z,58.45
2017-04-23T04:38:07.490Z,58.45
2017-04-23T04:38:33.054Z,58.45
2017-04-23T04:38:58.593Z,58.17
2017-04-23T04:39:24.144Z,58.17
2017-04-23T04:39:49.681Z,58.07
2017-04-23T04:40:15.306Z,58.26
2017-04-23T04:40:40.984Z,58.07
2017-04-23T04:41:06.540Z,58.07
2017-04-23T04:41:32.182Z,57.97
2017-04-23T04:41:57.766Z,58.26
2017-04-23T04:42:23.332Z,57.97
2017-04-23T04:42:48.901Z,57.97
2017-04-23T04:43:14.491Z,58.17
2017-04-23T04:43:40.072Z,58.26
2017-04-23T04:44:05.631Z,58.07
2017-04-23T04:44:31.189Z,58.36
2017-04-23T04:44:56.758Z,58.45
2017-04-23T04:45:22.323Z,58.45
2017-04-23T04:45:47.890Z,58.55
2017-04-23T04:46:13.451Z,58.07
2017-04-23T04:46:39.012Z,58.07
2017-04-23T04:47:04.574Z,58.36
2017-04-23T04:47:30.190Z,58.17
2017-04-23T04:47:55.793Z,58.45
2017-04-23T04:48:21.348Z,58.17
2017-04-23T04:48:46.890Z,58.45
2017-04-23T04:49:12.463Z,58.17
2017-04-23T04:49:38.034Z,58.45
2017-04-23T04:50:03.580Z,58.17
2017-04-23T04:50:29.121Z,58.64
2017-04-23T04:50:54.661Z,58.45
2017-04-23T04:51:20.254Z,58.64
2017-04-23T04:51:45.804Z,58.17
2017-04-23T04:52:11.341Z,58.26
2017-04-23T04:52:36.897Z,58.17
2017-04-23T04:53:02.462Z,58.45
2017-04-23T04:53:28.080Z,58.45
2017-04-23T04:53:53.662Z,58.17
2017-04-23T04:54:19.202Z,58.36
2017-04-23T04:54:44.818Z,58.36
2017-04-23T04:55:10.391Z,58.17
2017-04-23T04:55:35.960Z,58.17
2017-04-23T04:56:01.520Z,58.45
2017-04-23T04:56:27.084Z,58.36
2017-04-23T04:56:52.642Z,58.07
2017-04-23T04:57:18.250Z,58.07
2017-04-23T04:57:43.813Z,58.26
2017-04-23T04:58:09.378Z,57.97
2017-04-23T04:58:35.082Z,58.36
2017-04-23T04:59:00.643Z,58.07
2017-04-23T04:59:26.206Z,58.26
2017-04-23T04:59:51.755Z,58.26
2017-04-23T05:00:17.322Z,58.45
2017-04-23T05:00:42.885Z,58.17
2017-04-23T05:01:08.428Z,58.17
2017-04-23T05:01:34.052Z,58.45
2017-04-23T05:01:59.595Z,58.45
2017-04-23T05:02:25.152Z,58.36
2017-04-23T05:02:50.700Z,58.45
2017-04-23T05:03:16.246Z,58.45
2017-04-23T05:03:41.799Z,58.36
2017-04-23T05:04:07.480Z,58.36
2017-04-23T05:04:33.049Z,58.45
2017-04-23T05:04:58.640Z,58.17
2017-04-23T05:05:24.197Z,58.26
2017-04-23T05:05:49.762Z,58.07
2017-04-23T05:06:15.330Z,58.45
2017-04-23T05:06:40.902Z,58.36
2017-04-23T05:07:06.482Z,58.36
2017-04-23T05:07:32.032Z,58.26
2017-04-23T05:07:57.603Z,58.26
2017-04-23T05:08:23.161Z,58.17
2017-04-23T05:08:48.712Z,58.36
2017-04-23T05:09:14.360Z,58.55
2017-04-23T05:09:40.022Z,58.26
2017-04-23T05:10:05.639Z,58.17
2017-04-23T05:10:31.221Z,58.26
2017-04-23T05:10:56.780Z,57.97
2017-04-23T05:11:22.429Z,58.26
2017-04-23T05:11:48.003Z,57.97
2017-04-23T05:12:13.565Z,57.97
2017-04-23T05:12:39.124Z,58.17
2017-04-23T05:13:04.758Z,58.07
2017-04-23T05:13:30.334Z,58.17
2017-04-23T05:13:55.888Z,58.07
2017-04-23T05:14:59.521Z,58.36
2017-04-23T05:15:25.068Z,58.17
2017-04-23T05:15:50.638Z,58.64
2017-04-23T05:16:16.178Z,58.64
2017-04-23T05:16:41.742Z,58.17
2017-04-23T05:17:07.370Z,58.17
2017-04-23T05:17:32.918Z,58.55
2017-04-23T05:17:58.474Z,58.17
2017-04-23T05:18:24.055Z,58.07
2017-04-23T05:18:49.602Z,58.26
2017-04-23T05:19:15.146Z,58.17
2017-04-23T05:19:40.730Z,58.17
2017-04-23T05:20:06.263Z,58.17
2017-04-23T05:20:31.799Z,58.17
2017-04-23T05:20:57.356Z,58.17
2017-04-23T05:21:22.929Z,58.45
2017-04-23T05:21:48.580Z,58.26
2017-04-23T05:22:14.132Z,58.36
2017-04-23T05:22:39.687Z,58.26
2017-04-23T05:23:05.348Z,58.36
2017-04-23T05:23:30.911Z,58.17
2017-04-23T05:23:56.462Z,58.55
2017-04-23T05:24:22.024Z,58.26
2017-04-23T05:24:47.593Z,58.17
2017-04-23T05:25:13.163Z,57.97
2017-04-23T05:25:38.720Z,58.26
2017-04-23T05:26:04.284Z,58.36
2017-04-23T05:26:29.843Z,58.26
2017-04-23T05:26:55.513Z,58.26
2017-04-23T05:27:21.074Z,58.26
2017-04-23T05:27:46.632Z,58.26
2017-04-23T05:28:12.194Z,58.45
2017-04-23T05:28:37.752Z,58.17
2017-04-23T05:29:03.300Z,58.36
2017-04-23T05:29:28.856Z,58.36
2017-04-23T05:29:54.404Z,58.17
2017-04-23T05:30:19.935Z,58.17
2017-04-23T05:30:45.506Z,58.26
2017-04-23T05:31:11.067Z,58.17
2017-04-23T05:31:36.704Z,58.17
2017-04-23T05:32:02.283Z,58.17
2017-04-23T05:32:27.909Z,58.26
2017-04-23T05:32:53.463Z,58.26
2017-04-23T05:33:19.018Z,58.26
2017-04-23T05:33:44.574Z,58.26
2017-04-23T05:34:10.143Z,58.07
2017-04-23T05:34:35.815Z,58.26
2017-04-23T05:35:01.375Z,58.26
2017-04-23T05:35:26.924Z,58.26
2017-04-23T05:35:52.469Z,58.17
2017-04-23T05:36:18.053Z,58.45
2017-04-23T05:37:21.602Z,58.45
2017-04-23T05:37:47.171Z,58.26
2017-04-23T05:38:12.736Z,58.45
2017-04-23T05:38:38.313Z,58.26
2017-04-23T05:39:03.928Z,58.26
2017-04-23T05:39:29.492Z,58.26
2017-04-23T05:39:55.052Z,58.45
2017-04-23T05:40:20.603Z,58.36
2017-04-23T05:40:46.210Z,58.36
2017-04-23T05:41:11.811Z,58.36
2017-04-23T05:41:37.357Z,58.45
2017-04-23T05:42:03.035Z,58.45
2017-04-23T05:42:28.617Z,58.36
2017-04-23T05:42:54.192Z,58.26
2017-04-23T05:43:19.748Z,58.36
2017-04-23T05:43:45.330Z,58.36
2017-04-23T05:44:10.931Z,58.36
2017-04-23T05:44:36.491Z,58.26
2017-04-23T05:45:02.053Z,58.26
2017-04-23T05:45:27.611Z,58.17
2017-04-23T05:45:53.221Z,58.36
2017-04-23T05:46:18.786Z,58.45
2017-04-23T05:46:44.335Z,58.45
2017-04-23T05:47:09.887Z,58.26
2017-04-23T05:47:35.457Z,58.26
2017-04-23T05:48:01.011Z,58.36
2017-04-23T05:48:26.546Z,58.45
2017-04-23T05:48:52.115Z,58.36
2017-04-23T05:49:17.662Z,58.26
2017-04-23T05:49:43.254Z,58.17
2017-04-23T05:50:08.824Z,58.17
2017-04-23T05:50:34.403Z,58.36
2017-04-23T05:50:59.959Z,58.26
2017-04-23T05:51:25.514Z,58.45
2017-04-23T05:51:51.063Z,58.45
2017-04-23T05:52:16.733Z,58.17
2017-04-23T05:52:42.302Z,58.17
2017-04-23T05:53:07.857Z,58.26
2017-04-23T05:53:33.409Z,58.45
2017-04-23T05:53:58.975Z,58.45
2017-04-23T05:54:24.525Z,58.36
2017-04-23T05:54:50.081Z,58.17
2017-04-23T05:55:15.649Z,58.36
2017-04-23T05:55:41.234Z,58.36
2017-04-23T05:56:06.793Z,58.07
2017-04-23T05:56:32.339Z,58.26
2017-04-23T05:56:57.881Z,58.07
2017-04-23T05:57:23.414Z,58.07
2017-04-23T05:57:49.067Z,58.07
2017-04-23T05:58:14.623Z,58.07
2017-04-23T05:58:40.213Z,58.07
2017-04-23T05:59:05.750Z,57.97
2017-04-23T06:00:19.621Z,57.97
2017-04-23T06:00:45.178Z,57.97
2017-04-23T06:01:38.159Z,58.36
2017-04-23T06:02:03.712Z,57.97
2017-04-23T06:03:06.995Z,58.07
2017-04-23T06:03:32.565Z,58.45
2017-04-23T06:03:58.118Z,58.64
2017-04-23T06:04:23.665Z,58.45
2017-04-23T06:04:49.209Z,58.64
2017-04-23T06:05:14.773Z,58.45
2017-04-23T06:05:40.410Z,58.45
2017-04-23T06:06:05.960Z,58.64
2017-04-23T06:06:31.497Z,58.55
2017-04-23T06:06:57.075Z,58.55
2017-04-23T06:07:22.777Z,58.55
2017-04-23T06:07:48.333Z,58.36
2017-04-23T06:08:13.912Z,58.45
2017-04-23T06:08:39.491Z,58.45
2017-04-23T06:09:05.049Z,58.45
2017-04-23T06:09:30.601Z,58.26
2017-04-23T06:09:56.160Z,58.45
2017-04-23T06:10:21.714Z,58.45
2017-04-23T06:10:47.298Z,58.45
2017-04-23T06:11:12.868Z,58.45
2017-04-23T06:11:38.409Z,58.45
2017-04-23T06:12:03.963Z,58.26
2017-04-23T06:12:29.510Z,58.45
2017-04-23T06:12:55.136Z,58.45
2017-04-23T06:13:20.682Z,58.64
2017-04-23T06:13:46.221Z,58.17
2017-04-23T06:14:11.779Z,58.45
2017-04-23T06:14:37.323Z,58.45
2017-04-23T06:15:02.891Z,58.55
2017-04-23T06:15:28.434Z,58.55
2017-04-23T06:15:54.082Z,58.36
2017-04-23T06:16:19.657Z,58.55
2017-04-23T06:16:45.296Z,58.55
2017-04-23T06:17:10.863Z,58.45
2017-04-23T06:17:36.422Z,58.55
2017-04-23T06:18:01.993Z,58.45
2017-04-23T06:18:27.572Z,58.55
2017-04-23T06:18:53.130Z,58.64
2017-04-23T06:19:18.690Z,58.55
2017-04-23T06:19:44.250Z,58.55
2017-04-23T06:20:09.812Z,58.36
2017-04-23T06:20:35.369Z,58.45
2017-04-23T06:21:00.947Z,58.55
2017-04-23T06:21:26.513Z,58.36
2017-04-23T06:21:52.063Z,58.36
2017-04-23T06:22:17.632Z,58.45
2017-04-23T06:22:43.223Z,58.55
2017-04-23T06:23:08.838Z,58.45
2017-04-23T06:23:34.392Z,58.55
2017-04-23T06:23:59.972Z,58.55
2017-04-23T06:24:25.562Z,58.55
2017-04-23T06:24:51.148Z,58.55
2017-04-23T06:25:16.688Z,58.45
2017-04-23T06:25:42.258Z,58.45
2017-04-23T06:26:07.818Z,58.55
2017-04-23T06:26:33.372Z,58.55
2017-04-23T06:26:58.999Z,58.45
2017-04-23T06:27:24.585Z,58.64
2017-04-23T06:27:50.140Z,58.64
2017-04-23T06:28:15.711Z,58.45
2017-04-23T06:28:41.253Z,58.55
2017-04-23T06:29:06.811Z,58.55
2017-04-23T06:29:32.516Z,58.55
2017-04-23T06:29:58.126Z,58.45
2017-04-23T06:30:23.660Z,58.36
2017-04-23T06:30:49.324Z,58.17
2017-04-23T06:31:14.889Z,58.64
2017-04-23T06:31:40.481Z,58.26
2017-04-23T06:32:06.025Z,58.36
2017-04-23T06:32:31.568Z,58.17
2017-04-23T06:32:57.099Z,58.17
2017-04-23T06:33:22.666Z,58.55
2017-04-23T06:33:48.219Z,58.17
2017-04-23T06:34:13.759Z,58.07
2017-04-23T06:34:39.304Z,58.17
2017-04-23T06:35:04.863Z,58.07
2017-04-23T06:35:30.430Z,58.55
2017-04-23T06:35:55.978Z,58.17
2017-04-23T06:36:21.545Z,58.07
2017-04-23T06:36:47.091Z,58.07
2017-04-23T06:37:12.651Z,58.07
2017-04-23T06:37:38.303Z,58.17
2017-04-23T06:38:03.873Z,58.45
2017-04-23T06:38:29.433Z,58.07
2017-04-23T06:38:55.005Z,57.97
2017-04-23T06:39:20.585Z,58.17
2017-04-23T06:39:46.142Z,58.26
2017-04-23T06:40:11.704Z,58.26
2017-04-23T06:40:37.260Z,58.36
2017-04-23T06:41:02.819Z,58.17
2017-04-23T06:41:28.513Z,58.07
2017-04-23T06:41:54.084Z,58.07
2017-04-23T06:42:19.633Z,58.07
2017-04-23T06:42:45.185Z,58.17
2017-04-23T06:43:10.743Z,58.07
2017-04-23T06:43:36.335Z,57.97
2017-04-23T06:44:01.955Z,57.97
2017-04-23T06:44:27.674Z,57.97
2017-04-23T06:44:53.239Z,58.07
2017-04-23T06:45:18.790Z,58.07
2017-04-23T06:45:44.359Z,58.07
2017-04-23T06:46:09.932Z,58.17
2017-04-23T06:46:35.489Z,58.07
2017-04-23T06:47:01.062Z,58.36
2017-04-23T06:47:26.630Z,58.07
2017-04-23T06:47:52.184Z,58.07
2017-04-23T06:48:17.740Z,57.97
2017-04-23T06:48:43.293Z,58.07
2017-04-23T06:49:08.868Z,58.36
2017-04-23T06:49:34.440Z,58.26
2017-04-23T06:49:59.983Z,58.26
2017-04-23T06:50:25.593Z,58.26
2017-04-23T06:50:51.213Z,58.26
2017-04-23T06:51:16.839Z,58.17
2017-04-23T06:51:42.392Z,58.26
2017-04-23T06:52:07.948Z,58.07
2017-04-23T06:52:33.496Z,58.07
2017-04-23T06:52:59.045Z,58.17
2017-04-23T06:53:24.604Z,58.26
2017-04-23T06:53:50.227Z,58.07
2017-04-23T06:54:15.769Z,58.36
2017-04-23T06:54:41.324Z,58.26
2017-04-23T06:55:06.931Z,58.36
2017-04-23T06:55:32.484Z,58.07
2017-04-23T06:55:58.061Z,58.17
2017-04-23T06:56:23.634Z,58.07
2017-04-23T06:56:49.193Z,58.26
2017-04-23T06:57:14.779Z,58.07
2017-04-23T06:57:40.344Z,58.36
2017-04-23T06:58:05.920Z,58.07
2017-04-23T06:58:31.472Z,58.26
2017-04-23T06:58:57.171Z,58.07
2017-04-23T06:59:22.782Z,58.07
2017-04-23T06:59:48.354Z,58.07
2017-04-23T07:00:13.922Z,58.07
2017-04-23T07:00:39.493Z,58.07
2017-04-23T07:01:05.051Z,58.17
2017-04-23T07:01:30.622Z,57.97
2017-04-23T07:01:56.184Z,58.17
2017-04-23T07:02:21.723Z,58.07
2017-04-23T07:02:47.300Z,58.07
2017-04-23T07:03:12.882Z,58.45
2017-04-23T07:03:38.473Z,58.07
2017-04-23T07:04:04.050Z,58.17
2017-04-23T07:04:29.745Z,58.07
2017-04-23T07:04:55.303Z,58.45
2017-04-23T07:05:20.957Z,58.26
2017-04-23T07:05:46.569Z,58.17
2017-04-23T07:06:12.168Z,58.07
2017-04-23T07:06:37.727Z,57.97
2017-04-23T07:07:03.309Z,58.07
2017-04-23T07:07:28.863Z,58.07
2017-04-23T07:07:54.499Z,57.97
2017-04-23T07:08:20.053Z,58.07
2017-04-23T07:08:45.619Z,58.07
2017-04-23T07:09:11.222Z,58.07
2017-04-23T07:09:36.772Z,57.97
2017-04-23T07:10:02.321Z,58.07
2017-04-23T07:10:27.958Z,58.07
2017-04-23T07:10:53.515Z,57.97
2017-04-23T07:11:19.061Z,58.07
2017-04-23T07:11:44.615Z,58.07
2017-04-23T07:12:10.193Z,58.07
2017-04-23T07:12:35.734Z,58.07
2017-04-23T07:13:01.299Z,58.07
2017-04-23T07:13:26.879Z,58.07
2017-04-23T07:13:52.440Z,57.97
2017-04-23T07:14:17.977Z,58.45
2017-04-23T07:14:43.530Z,58.45
2017-04-23T07:15:09.114Z,58.45
2017-04-23T07:15:34.671Z,58.45
2017-04-23T07:16:00.234Z,58.45
2017-04-23T07:16:25.782Z,58.64
2017-04-23T07:16:51.342Z,58.26
2017-04-23T07:17:16.913Z,58.45
2017-04-23T07:17:42.472Z,58.26
2017-04-23T07:18:08.023Z,58.36
2017-04-23T07:18:33.591Z,58.45
2017-04-23T07:18:59.165Z,58.36
2017-04-23T07:19:24.819Z,58.17
2017-04-23T07:19:50.400Z,58.45
2017-04-23T07:20:15.961Z,58.36
2017-04-23T07:20:41.624Z,58.26
2017-04-23T07:21:07.232Z,58.64
2017-04-23T07:21:32.791Z,58.45
2017-04-23T07:21:58.351Z,58.17
2017-04-23T07:22:23.912Z,58.45
2017-04-23T07:22:49.470Z,58.26
2017-04-23T07:23:15.041Z,58.45
2017-04-23T07:23:40.593Z,58.45
2017-04-23T07:24:06.201Z,58.45
2017-04-23T07:24:31.820Z,58.17
2017-04-23T07:24:57.371Z,58.07
2017-04-23T07:25:22.932Z,58.36
2017-04-23T07:25:48.493Z,58.07
2017-04-23T07:26:14.061Z,58.45
2017-04-23T07:26:39.619Z,58.45
2017-04-23T07:27:05.194Z,58.55
2017-04-23T07:27:30.749Z,58.45
2017-04-23T07:27:56.316Z,58.64
2017-04-23T07:28:21.883Z,58.26
2017-04-23T07:28:47.444Z,58.64
2017-04-23T07:29:13.025Z,58.45
2017-04-23T07:29:38.608Z,58.64
2017-04-23T07:30:04.162Z,58.36
2017-04-23T07:30:29.742Z,58.45
2017-04-23T07:30:55.312Z,58.45
2017-04-23T07:31:20.870Z,58.26
2017-04-23T07:31:46.444Z,58.45
2017-04-23T07:32:12.012Z,58.17
2017-04-23T07:32:37.553Z,58.45
2017-04-23T07:33:03.095Z,58.45
2017-04-23T07:33:28.662Z,58.64
2017-04-23T07:33:54.261Z,58.55
2017-04-23T07:34:19.844Z,58.26
2017-04-23T07:34:45.399Z,58.45
2017-04-23T07:35:11.089Z,58.45
2017-04-23T07:35:36.657Z,58.45
2017-04-23T07:36:02.244Z,58.45
2017-04-23T07:36:27.811Z,58.55
2017-04-23T07:36:53.364Z,58.45
2017-04-23T07:37:18.920Z,58.55
2017-04-23T07:37:44.504Z,58.64
2017-04-23T07:38:10.091Z,58.55
2017-04-23T07:38:35.640Z,58.64
2017-04-23T07:39:01.194Z,58.64
2017-04-23T07:39:26.859Z,58.36
2017-04-23T07:39:52.419Z,58.45
2017-04-23T07:40:18.001Z,58.45
2017-04-23T07:40:43.593Z,58.45
2017-04-23T07:41:09.165Z,58.45
2017-04-23T07:41:34.723Z,58.36
2017-04-23T07:42:00.300Z,58.45
2017-04-23T07:42:25.844Z,58.36
2017-04-23T07:42:51.474Z,58.07
2017-04-23T07:43:17.021Z,58.07
2017-04-23T07:43:42.568Z,58.17
2017-04-23T07:44:08.138Z,58.07
2017-04-23T07:44:33.704Z,57.97
2017-04-23T07:44:59.282Z,58.07
2017-04-23T07:45:24.820Z,58.07
2017-04-23T07:45:50.375Z,58.17
2017-04-23T07:46:15.925Z,58.17
2017-04-23T07:46:41.533Z,58.26
2017-04-23T07:47:07.081Z,58.17
2017-04-23T07:47:32.662Z,58.36
2017-04-23T07:47:58.189Z,58.36
2017-04-23T07:48:23.722Z,58.17
2017-04-23T07:48:49.419Z,58.36
2017-04-23T07:49:15.031Z,58.26
2017-04-23T07:49:40.573Z,58.36
2017-04-23T07:50:06.130Z,58.45
2017-04-23T07:50:31.721Z,58.36
2017-04-23T07:50:57.295Z,58.45
2017-04-23T07:51:22.869Z,58.17
2017-04-23T07:51:48.421Z,58.26
2017-04-23T07:52:13.982Z,58.26
2017-04-23T07:52:39.624Z,58.45
2017-04-23T07:53:05.191Z,58.45
2017-04-23T07:53:30.752Z,58.45
2017-04-23T07:53:56.392Z,58.45
2017-04-23T07:54:21.938Z,58.17
2017-04-23T07:54:47.494Z,58.17
2017-04-23T07:55:13.042Z,58.17
2017-04-23T07:55:38.607Z,58.45
2017-04-23T07:56:04.174Z,58.55
2017-04-23T07:56:29.776Z,58.26
2017-04-23T07:56:55.348Z,58.26
2017-04-23T07:57:20.902Z,58.36
2017-04-23T07:57:46.460Z,58.17
2017-04-23T07:58:12.034Z,58.07
2017-04-23T07:58:37.585Z,58.07
2017-04-23T07:59:03.137Z,58.45
2017-04-23T07:59:28.711Z,58.36
2017-04-23T07:59:54.262Z,58.17
2017-04-23T08:00:19.831Z,58.26
2017-04-23T08:00:45.408Z,58.17
2017-04-23T08:01:10.980Z,58.26
2017-04-23T08:01:36.556Z,58.26
2017-04-23T08:02:02.114Z,58.36
2017-04-23T08:02:27.711Z,58.36
2017-04-23T08:02:53.289Z,58.17
2017-04-23T08:03:18.834Z,58.26
2017-04-23T08:03:44.401Z,58.07
2017-04-23T08:04:10.034Z,58.36
2017-04-23T08:04:35.581Z,58.17
2017-04-23T08:05:01.130Z,58.64
2017-04-23T08:05:26.719Z,58.64
2017-04-23T08:05:52.302Z,58.07
2017-04-23T08:06:17.885Z,58.36
2017-04-23T08:06:43.452Z,58.26
2017-04-23T08:07:09.020Z,58.26
2017-04-23T08:07:34.589Z,58.84
2017-04-23T08:08:00.181Z,58.26
2017-04-23T08:08:35.966Z,58.36
2017-04-23T08:09:01.510Z,58.55
2017-04-23T08:09:27.074Z,58.36
2017-04-23T08:09:52.656Z,58.26
2017-04-23T08:10:18.237Z,58.55
2017-04-23T08:10:43.802Z,58.26
2017-04-23T08:11:09.380Z,58.36
2017-04-23T08:11:35.023Z,58.07
2017-04-23T08:12:00.604Z,58.26
2017-04-23T08:12:26.158Z,58.26
2017-04-23T08:12:51.749Z,58.26
2017-04-23T08:13:17.314Z,58.55
2017-04-23T08:13:42.861Z,58.26
2017-04-23T08:14:08.438Z,58.17
2017-04-23T08:14:33.979Z,58.26
2017-04-23T08:14:59.668Z,58.17
2017-04-23T08:15:25.253Z,57.88
2017-04-23T08:15:51.145Z,58.17
2017-04-23T08:16:16.740Z,58.26
2017-04-23T08:16:42.984Z,58.55
2017-04-23T08:17:08.560Z,58.36
2017-04-23T08:17:34.767Z,58.26
2017-04-23T08:18:00.339Z,58.07
2017-04-23T08:18:25.909Z,58.17
2017-04-23T08:18:52.103Z,58.26
2017-04-23T08:19:17.669Z,58.36
2017-04-23T08:19:43.908Z,58.26
2017-04-23T08:20:09.472Z,58.55
2017-04-23T08:20:35.152Z,58.07
2017-04-23T08:21:01.229Z,58.84
2017-04-23T08:21:26.798Z,58.64
2017-04-23T08:21:53.155Z,58.74
2017-04-23T08:22:18.776Z,58.45
2017-04-23T08:22:44.855Z,58.55
2017-04-23T08:23:10.483Z,58.36
2017-04-23T08:23:36.040Z,58.26
2017-04-23T08:24:02.196Z,58.07
2017-04-23T08:24:27.749Z,58.07
2017-04-23T08:24:53.995Z,58.45
2017-04-23T08:25:19.569Z,58.17
2017-04-23T08:25:45.134Z,58.26
2017-04-23T08:26:11.505Z,58.55
2017-04-23T08:26:37.180Z,58.07
2017-04-23T08:27:03.138Z,58.07
2017-04-23T08:27:28.716Z,57.97
2017-04-23T08:27:54.923Z,58.17
2017-04-23T08:28:20.499Z,58.26
2017-04-23T08:28:46.082Z,58.07
2017-04-23T08:29:12.322Z,58.17
2017-04-23T08:29:37.947Z,58.07
2017-04-23T08:30:04.058Z,58.45
2017-04-23T08:30:29.623Z,58.07
2017-04-23T08:30:55.342Z,58.17
2017-04-23T08:31:21.399Z,58.26
2017-04-23T08:31:46.952Z,58.26
2017-04-23T08:32:13.207Z,58.17
2017-04-23T08:32:38.774Z,58.17
2017-04-23T08:33:05.025Z,58.17
2017-04-23T08:33:30.613Z,58.26
2017-04-23T08:33:56.189Z,58.26
2017-04-23T08:34:22.455Z,58.17
2017-04-23T08:34:48.088Z,58.17
2017-04-23T08:35:14.153Z,58.26
2017-04-23T08:35:39.760Z,58.17
2017-04-23T08:36:05.332Z,58.45
2017-04-23T08:36:31.490Z,58.45
2017-04-23T08:36:57.042Z,58.45
2017-04-23T08:37:23.420Z,58.36
2017-04-23T08:37:48.988Z,58.45
2017-04-23T08:38:15.107Z,58.26
2017-04-23T08:38:40.674Z,58.26
2017-04-23T08:39:06.240Z,58.45
2017-04-23T08:39:32.420Z,58.26
2017-04-23T08:39:57.991Z,58.07
2017-04-23T08:40:24.242Z,58.07
2017-04-23T08:40:49.877Z,58.26
2017-04-23T08:41:15.440Z,58.07
2017-04-23T08:41:41.576Z,58.07
2017-04-23T08:42:07.144Z,58.07
2017-04-23T08:42:33.400Z,58.17
2017-04-23T08:42:58.973Z,58.45
2017-04-23T08:43:25.202Z,58.07
2017-04-23T08:43:50.764Z,57.97
2017-04-23T08:44:16.432Z,57.97
2017-04-23T08:44:42.501Z,58.07
2017-04-23T08:45:08.079Z,58.07
2017-04-23T08:45:34.307Z,58.36
2017-04-23T08:45:59.882Z,58.17
2017-04-23T08:46:25.441Z,58.45
2017-04-23T08:46:51.711Z,58.45
2017-04-23T08:47:17.276Z,58.45
2017-04-23T08:47:43.452Z,58.36
2017-04-23T08:48:09.014Z,58.17
2017-04-23T08:48:35.276Z,58.64
2017-04-23T08:49:00.848Z,58.64
2017-04-23T08:49:26.501Z,58.55
2017-04-23T08:49:52.644Z,58.64
2017-04-23T08:50:18.203Z,58.55
2017-04-23T08:50:44.402Z,58.55
2017-04-23T08:51:09.960Z,58.36
2017-04-23T08:51:35.524Z,58.55
2017-04-23T08:52:01.717Z,58.45
2017-04-23T08:52:27.301Z,58.45
2017-04-23T08:52:53.541Z,58.55
2017-04-23T08:53:19.147Z,58.55
2017-04-23T08:53:45.321Z,58.55
2017-04-23T08:54:10.887Z,58.36
2017-04-23T08:55:04.268Z,58.36
2017-04-23T08:55:29.838Z,58.55
2017-04-23T08:55:55.452Z,58.55
2017-04-23T08:56:21.004Z,58.64
2017-04-23T08:56:46.560Z,58.36
2017-04-23T08:57:12.109Z,58.45
2017-04-23T08:57:37.673Z,58.55
2017-04-23T08:58:03.271Z,58.64
2017-04-23T08:58:28.869Z,58.55
2017-04-23T08:58:54.491Z,58.45
2017-04-23T08:59:20.062Z,58.45
2017-04-23T08:59:45.661Z,58.55
2017-04-23T09:00:11.202Z,58.26
2017-04-23T09:00:36.782Z,58.64
2017-04-23T09:01:02.347Z,58.64
2017-04-23T09:01:27.938Z,58.26
2017-04-23T09:01:53.488Z,58.26
2017-04-23T09:02:19.054Z,58.45
2017-04-23T09:02:44.612Z,58.26
2017-04-23T09:03:10.217Z,58.64
2017-04-23T09:03:35.800Z,58.64
2017-04-23T09:04:01.381Z,58.64
2017-04-23T09:04:26.969Z,58.55
2017-04-23T09:04:52.548Z,58.55
2017-04-23T09:05:18.081Z,58.26
2017-04-23T09:05:43.630Z,58.64
2017-04-23T09:06:09.203Z,58.55
2017-04-23T09:06:34.806Z,58.64
2017-04-23T09:07:00.414Z,58.74
2017-04-23T09:07:25.969Z,58.74
2017-04-23T09:07:51.526Z,58.36
2017-04-23T09:08:17.097Z,58.94
2017-04-23T09:08:42.656Z,58.64
2017-04-23T09:09:08.244Z,58.64
2017-04-23T09:09:33.822Z,58.84
2017-04-23T09:09:59.372Z,58.55
2017-04-23T09:10:24.920Z,58.64
2017-04-23T09:10:50.579Z,58.74
2017-04-23T09:11:16.157Z,58.94
2017-04-23T09:11:41.695Z,58.74
2017-04-23T09:12:07.257Z,58.64
2017-04-23T09:12:32.831Z,58.94
2017-04-23T09:12:58.394Z,58.64
2017-04-23T09:13:23.986Z,58.64
2017-04-23T09:13:49.525Z,58.74
2017-04-23T09:15:03.280Z,58.94
2017-04-23T09:15:28.890Z,58.94
2017-04-23T09:15:54.441Z,58.74
2017-04-23T09:16:19.991Z,59.03
2017-04-23T09:16:45.549Z,58.55
2017-04-23T09:17:11.103Z,59.03
2017-04-23T09:17:36.674Z,58.84
2017-04-23T09:18:02.302Z,59.03
2017-04-23T09:18:27.860Z,58.94
2017-04-23T09:18:53.442Z,59.03
2017-04-23T09:19:19.033Z,59.03
2017-04-23T09:19:44.580Z,59.12
2017-04-23T09:20:10.337Z,59.03
2017-04-23T09:20:35.930Z,58.94
2017-04-23T09:21:01.481Z,58.84
2017-04-23T09:21:27.054Z,59.03
2017-04-23T09:21:52.686Z,59.03
2017-04-23T09:22:18.271Z,58.94
2017-04-23T09:22:43.846Z,58.94
2017-04-23T09:23:09.411Z,59.03
2017-04-23T09:23:35.102Z,58.94
2017-04-23T09:24:00.681Z,59.03
2017-04-23T09:24:26.266Z,59.03
2017-04-23T09:24:51.852Z,59.03
2017-04-23T09:25:17.457Z,58.94
2017-04-23T09:25:43.010Z,59.03
2017-04-23T09:26:08.571Z,58.94
2017-04-23T09:26:34.176Z,58.94
2017-04-23T09:26:59.771Z,59.03
2017-04-23T09:27:25.384Z,59.12
2017-04-23T09:27:50.944Z,58.74
2017-04-23T09:28:16.487Z,59.03
2017-04-23T09:28:42.126Z,59.12
2017-04-23T09:29:07.711Z,59.03
2017-04-23T09:29:33.283Z,58.74
2017-04-23T09:29:58.878Z,58.84
2017-04-23T09:30:24.450Z,59.03
2017-04-23T09:30:50.032Z,58.94
2017-04-23T09:31:15.582Z,58.74
2017-04-23T09:31:41.156Z,59.03
2017-04-23T09:32:06.752Z,59.03
2017-04-23T09:32:32.413Z,58.74
2017-04-23T09:32:57.951Z,59.03
2017-04-23T09:33:23.522Z,58.74
2017-04-23T09:33:49.088Z,58.94
2017-04-23T09:34:14.642Z,58.84
2017-04-23T09:34:40.213Z,58.84
2017-04-23T09:35:05.928Z,58.84